sensor_id;sensor_type;location;lat;lon;timestamp;temperature;humidity
11242;DHT22;5678;52.370;9.006;2023-01-01T00:01:45;15.20;99.90
11242;DHT22;5678;52.370;9.006;2023-01-01T00:04:14;15.80;99.90
11242;DHT22;5678;52.370;9.006;2023-01-01T00:06:43;15.30;99.90
11242;DHT22;5678;52.370;9.006;2023-01-01T00:09:11;15.50;99.90
11242;DHT22;5678;52.370;9.006;2023-01-01T00:11:57;15.30;99.90
11242;DHT22;5678;52.370;9.006;2023-01-01T00:14:25;15.00;99.90
11242;DHT22;5678;52.370;9.006;2023-01-01T00:16:53;15.90;99.90
11242;DHT22;5678;52.370;9.006;2023-01-01T00:19:21;15.30;99.90
11242;DHT22;5678;52.370;9.006;2023-01-01T00:21:51;15.20;99.90
11242;DHT22;5678;52.370;9.006;2023-01-01T00:24:19;15.40;99.90
11242;DHT22;5678;52.370;9.006;2023-01-01T00:26:47;15.40;99.90
11242;DHT22;5678;52.370;9.006;2023-01-01T00:29:15;15.50;99.90
11242;DHT22;5678;52.370;9.006;2023-01-01T00:31:43;15.80;99.90
11242;DHT22;5678;52.370;9.006;2023-01-01T00:34:12;15.10;99.90
11242;DHT22;5678;52.370;9.006;2023-01-01T00:36:40;15.40;99.90
11242;DHT22;5678;52.370;9.006;2023-01-01T00:39:09;15.40;99.90
11242;DHT22;5678;52.370;9.006;2023-01-01T00:41:37;15.90;99.90
11242;DHT22;5678;52.370;9.006;2023-01-01T00:44:05;15.80;99.90
11242;DHT22;5678;52.370;9.006;2023-01-01T00:46:33;15.40;99.90
11242;DHT22;5678;52.370;9.006;2023-01-01T00:49:01;15.90;99.90
11242;DHT22;5678;52.370;9.006;2023-01-01T00:51:29;15.40;99.90
11242;DHT22;5678;52.370;9.006;2023-01-01T00:54:04;15.60;99.90
11242;DHT22;5678;52.370;9.006;2023-01-01T00:56:33;15.40;99.90
11242;DHT22;5678;52.370;9.006;2023-01-01T00:59:01;15.40;99.90
11242;DHT22;5678;52.370;9.006;2023-01-01T01:01:29;16.00;99.90
11242;DHT22;5678;52.370;9.006;2023-01-01T01:03:59;15.40;99.90
11242;DHT22;5678;52.370;9.006;2023-01-01T01:06:27;15.60;99.90
11242;DHT22;5678;52.370;9.006;2023-01-01T01:08:55;16.00;99.90
11242;DHT22;5678;52.370;9.006;2023-01-01T01:11:24;15.50;99.90
11242;DHT22;5678;52.370;9.006;2023-01-01T01:13:55;15.50;99.90
11242;DHT22;5678;52.370;9.006;2023-01-01T01:16:25;15.70;99.90
11242;DHT22;5678;52.370;9.006;2023-01-01T01:18:54;15.40;99.90
11242;DHT22;5678;52.370;9.006;2023-01-01T01:21:23;15.40;99.90
11242;DHT22;5678;52.370;9.006;2023-01-01T01:23:52;15.50;99.90
11242;DHT22;5678;52.370;9.006;2023-01-01T01:26:22;15.50;99.90
11242;DHT22;5678;52.370;9.006;2023-01-01T01:28:52;15.80;99.90
11242;DHT22;5678;52.370;9.006;2023-01-01T01:31:23;15.50;99.90
11242;DHT22;5678;52.370;9.006;2023-01-01T01:33:51;15.40;99.90
11242;DHT22;5678;52.370;9.006;2023-01-01T01:36:19;15.60;99.90
11242;DHT22;5678;52.370;9.006;2023-01-01T01:38:48;15.50;99.90
11242;DHT22;5678;52.370;9.006;2023-01-01T01:41:17;15.20;99.90
11242;DHT22;5678;52.370;9.006;2023-01-01T01:43:56;15.20;99.90
11242;DHT22;5678;52.370;9.006;2023-01-01T01:46:29;15.80;99.90
11242;DHT22;5678;52.370;9.006;2023-01-01T01:48:59;15.10;99.90
11242;DHT22;5678;52.370;9.006;2023-01-01T01:51:32;15.40;99.90
11242;DHT22;5678;52.370;9.006;2023-01-01T01:54:03;15.50;99.90
11242;DHT22;5678;52.370;9.006;2023-01-01T01:56:39;15.30;99.90
11242;DHT22;5678;52.370;9.006;2023-01-01T01:59:10;15.20;99.90
11242;DHT22;5678;52.370;9.006;2023-01-01T02:01:39;15.40;99.90
11242;DHT22;5678;52.370;9.006;2023-01-01T02:04:08;15.10;99.90
11242;DHT22;5678;52.370;9.006;2023-01-01T02:06:38;15.10;99.90
11242;DHT22;5678;52.370;9.006;2023-01-01T02:09:07;15.60;99.90
11242;DHT22;5678;52.370;9.006;2023-01-01T02:11:35;15.40;99.90
11242;DHT22;5678;52.370;9.006;2023-01-01T02:14:03;15.50;99.90
11242;DHT22;5678;52.370;9.006;2023-01-01T02:16:36;15.60;99.90
11242;DHT22;5678;52.370;9.006;2023-01-01T02:19:14;15.90;99.90
11242;DHT22;5678;52.370;9.006;2023-01-01T02:21:51;16.10;99.90
11242;DHT22;5678;52.370;9.006;2023-01-01T02:24:48;15.20;99.90
11242;DHT22;5678;52.370;9.006;2023-01-01T02:27:29;15.20;99.90
11242;DHT22;5678;52.370;9.006;2023-01-01T02:30:03;15.40;99.90
11242;DHT22;5678;52.370;9.006;2023-01-01T02:32:35;15.20;99.90
11242;DHT22;5678;52.370;9.006;2023-01-01T02:35:09;16.30;99.90
11242;DHT22;5678;52.370;9.006;2023-01-01T02:37:58;15.20;99.90
11242;DHT22;5678;52.370;9.006;2023-01-01T02:40:27;15.30;99.90
11242;DHT22;5678;52.370;9.006;2023-01-01T02:42:56;15.50;99.90
11242;DHT22;5678;52.370;9.006;2023-01-01T02:45:26;15.10;99.90
11242;DHT22;5678;52.370;9.006;2023-01-01T02:47:53;15.80;99.90
11242;DHT22;5678;52.370;9.006;2023-01-01T02:50:24;16.10;99.90
11242;DHT22;5678;52.370;9.006;2023-01-01T02:53:08;15.60;99.90
11242;DHT22;5678;52.370;9.006;2023-01-01T02:55:47;15.10;99.90
11242;DHT22;5678;52.370;9.006;2023-01-01T02:58:28;15.40;99.90
11242;DHT22;5678;52.370;9.006;2023-01-01T03:01:25;15.20;99.90
11242;DHT22;5678;52.370;9.006;2023-01-01T03:04:00;15.40;99.90
11242;DHT22;5678;52.370;9.006;2023-01-01T03:06:37;15.60;99.90
11242;DHT22;5678;52.370;9.006;2023-01-01T03:09:12;15.30;99.90
11242;DHT22;5678;52.370;9.006;2023-01-01T03:11:47;14.90;99.90
11242;DHT22;5678;52.370;9.006;2023-01-01T03:14:22;15.80;99.90
11242;DHT22;5678;52.370;9.006;2023-01-01T03:16:56;14.90;99.90
11242;DHT22;5678;52.370;9.006;2023-01-01T03:19:32;15.50;99.90
11242;DHT22;5678;52.370;9.006;2023-01-01T03:22:04;14.90;99.90
11242;DHT22;5678;52.370;9.006;2023-01-01T03:24:35;14.90;99.90
11242;DHT22;5678;52.370;9.006;2023-01-01T03:27:08;15.20;99.90
11242;DHT22;5678;52.370;9.006;2023-01-01T03:29:39;14.80;99.90
11242;DHT22;5678;52.370;9.006;2023-01-01T03:32:11;15.30;99.90
11242;DHT22;5678;52.370;9.006;2023-01-01T03:34:43;14.80;99.90
11242;DHT22;5678;52.370;9.006;2023-01-01T03:37:18;15.00;99.90
11242;DHT22;5678;52.370;9.006;2023-01-01T03:39:48;15.40;99.90
11242;DHT22;5678;52.370;9.006;2023-01-01T03:42:22;14.60;99.90
11242;DHT22;5678;52.370;9.006;2023-01-01T03:44:54;14.80;99.90
11242;DHT22;5678;52.370;9.006;2023-01-01T03:47:28;14.80;99.90
11242;DHT22;5678;52.370;9.006;2023-01-01T03:49:57;14.70;99.90
11242;DHT22;5678;52.370;9.006;2023-01-01T03:52:34;15.10;99.90
11242;DHT22;5678;52.370;9.006;2023-01-01T03:55:08;15.00;99.90
11242;DHT22;5678;52.370;9.006;2023-01-01T03:57:44;14.60;99.90
11242;DHT22;5678;52.370;9.006;2023-01-01T04:00:17;15.50;99.90
11242;DHT22;5678;52.370;9.006;2023-01-01T04:02:51;14.60;99.90
11242;DHT22;5678;52.370;9.006;2023-01-01T04:05:20;15.40;99.90
11242;DHT22;5678;52.370;9.006;2023-01-01T04:07:50;15.30;99.90
11242;DHT22;5678;52.370;9.006;2023-01-01T04:10:20;14.70;99.90
11242;DHT22;5678;52.370;9.006;2023-01-01T04:12:49;15.40;99.90
11242;DHT22;5678;52.370;9.006;2023-01-01T04:15:19;15.00;99.90
11242;DHT22;5678;52.370;9.006;2023-01-01T04:17:48;14.70;99.90
11242;DHT22;5678;52.370;9.006;2023-01-01T04:20:17;14.60;99.90
11242;DHT22;5678;52.370;9.006;2023-01-01T04:22:45;14.50;99.90
11242;DHT22;5678;52.370;9.006;2023-01-01T04:25:14;14.80;99.90
11242;DHT22;5678;52.370;9.006;2023-01-01T04:27:43;14.40;99.90
11242;DHT22;5678;52.370;9.006;2023-01-01T04:30:12;15.00;99.90
11242;DHT22;5678;52.370;9.006;2023-01-01T04:32:41;14.40;99.90
11242;DHT22;5678;52.370;9.006;2023-01-01T04:35:11;14.40;99.90
11242;DHT22;5678;52.370;9.006;2023-01-01T04:37:40;14.40;99.90
11242;DHT22;5678;52.370;9.006;2023-01-01T04:40:10;14.90;99.90
11242;DHT22;5678;52.370;9.006;2023-01-01T04:42:38;14.50;99.90
11242;DHT22;5678;52.370;9.006;2023-01-01T04:45:07;15.40;99.90
11242;DHT22;5678;52.370;9.006;2023-01-01T04:47:38;14.40;99.90
11242;DHT22;5678;52.370;9.006;2023-01-01T04:50:07;15.20;99.90
11242;DHT22;5678;52.370;9.006;2023-01-01T04:52:37;14.40;99.90
11242;DHT22;5678;52.370;9.006;2023-01-01T04:55:05;14.80;99.90
11242;DHT22;5678;52.370;9.006;2023-01-01T04:57:33;14.30;99.90
11242;DHT22;5678;52.370;9.006;2023-01-01T05:00:01;14.40;99.90
11242;DHT22;5678;52.370;9.006;2023-01-01T05:02:29;14.70;99.90
11242;DHT22;5678;52.370;9.006;2023-01-01T05:04:57;14.70;99.90
11242;DHT22;5678;52.370;9.006;2023-01-01T05:07:25;15.10;99.90
11242;DHT22;5678;52.370;9.006;2023-01-01T05:09:54;15.70;99.90
11242;DHT22;5678;52.370;9.006;2023-01-01T05:12:22;14.40;99.90
11242;DHT22;5678;52.370;9.006;2023-01-01T05:14:50;14.50;99.90
11242;DHT22;5678;52.370;9.006;2023-01-01T05:17:18;15.40;99.90
11242;DHT22;5678;52.370;9.006;2023-01-01T05:19:46;14.40;99.90
11242;DHT22;5678;52.370;9.006;2023-01-01T05:22:14;15.00;99.90
11242;DHT22;5678;52.370;9.006;2023-01-01T05:24:42;15.40;99.90
11242;DHT22;5678;52.370;9.006;2023-01-01T05:27:11;14.60;99.90
11242;DHT22;5678;52.370;9.006;2023-01-01T05:29:39;15.30;99.90
11242;DHT22;5678;52.370;9.006;2023-01-01T05:32:07;15.20;99.90
11242;DHT22;5678;52.370;9.006;2023-01-01T05:34:33;14.80;99.90
11242;DHT22;5678;52.370;9.006;2023-01-01T05:37:00;14.50;99.90
11242;DHT22;5678;52.370;9.006;2023-01-01T05:39:28;14.50;99.90
11242;DHT22;5678;52.370;9.006;2023-01-01T05:41:56;15.00;99.90
11242;DHT22;5678;52.370;9.006;2023-01-01T05:44:25;15.20;99.90
11242;DHT22;5678;52.370;9.006;2023-01-01T05:46:53;14.30;99.90
11242;DHT22;5678;52.370;9.006;2023-01-01T05:49:21;14.70;99.90
11242;DHT22;5678;52.370;9.006;2023-01-01T05:51:49;14.30;99.90
11242;DHT22;5678;52.370;9.006;2023-01-01T05:54:17;15.70;99.90
11242;DHT22;5678;52.370;9.006;2023-01-01T05:56:45;14.50;99.90
11242;DHT22;5678;52.370;9.006;2023-01-01T05:59:13;15.30;99.90
11242;DHT22;5678;52.370;9.006;2023-01-01T06:01:42;14.10;99.90
11242;DHT22;5678;52.370;9.006;2023-01-01T06:04:12;14.10;99.90
11242;DHT22;5678;52.370;9.006;2023-01-01T06:06:40;15.60;99.90
11242;DHT22;5678;52.370;9.006;2023-01-01T06:09:09;15.00;99.90
11242;DHT22;5678;52.370;9.006;2023-01-01T06:11:37;14.70;99.90
11242;DHT22;5678;52.370;9.006;2023-01-01T06:14:05;14.80;99.90
11242;DHT22;5678;52.370;9.006;2023-01-01T06:16:33;14.60;99.90
11242;DHT22;5678;52.370;9.006;2023-01-01T06:19:03;14.90;99.90
11242;DHT22;5678;52.370;9.006;2023-01-01T06:21:30;14.40;99.90
11242;DHT22;5678;52.370;9.006;2023-01-01T06:23:58;14.50;99.90
11242;DHT22;5678;52.370;9.006;2023-01-01T06:26:28;14.90;99.90
11242;DHT22;5678;52.370;9.006;2023-01-01T06:28:57;14.40;99.90
11242;DHT22;5678;52.370;9.006;2023-01-01T06:31:26;14.10;99.90
11242;DHT22;5678;52.370;9.006;2023-01-01T06:33:54;14.90;99.90
11242;DHT22;5678;52.370;9.006;2023-01-01T06:36:24;15.50;99.90
11242;DHT22;5678;52.370;9.006;2023-01-01T06:38:54;14.00;99.90
11242;DHT22;5678;52.370;9.006;2023-01-01T06:41:25;15.10;99.90
11242;DHT22;5678;52.370;9.006;2023-01-01T06:43:54;15.00;99.90
11242;DHT22;5678;52.370;9.006;2023-01-01T06:46:24;14.80;99.90
11242;DHT22;5678;52.370;9.006;2023-01-01T06:48:55;13.80;99.90
11242;DHT22;5678;52.370;9.006;2023-01-01T06:51:26;13.80;99.90
11242;DHT22;5678;52.370;9.006;2023-01-01T06:53:56;14.50;99.90
11242;DHT22;5678;52.370;9.006;2023-01-01T06:56:25;13.80;99.90
11242;DHT22;5678;52.370;9.006;2023-01-01T06:58:53;13.80;99.90
11242;DHT22;5678;52.370;9.006;2023-01-01T07:01:23;14.40;99.90
11242;DHT22;5678;52.370;9.006;2023-01-01T07:03:52;14.70;99.90
11242;DHT22;5678;52.370;9.006;2023-01-01T07:06:20;13.90;99.90
11242;DHT22;5678;52.370;9.006;2023-01-01T07:08:50;15.10;99.90
11242;DHT22;5678;52.370;9.006;2023-01-01T07:11:18;14.00;99.90
11242;DHT22;5678;52.370;9.006;2023-01-01T07:13:46;15.10;99.90
11242;DHT22;5678;52.370;9.006;2023-01-01T07:16:15;14.30;99.90
11242;DHT22;5678;52.370;9.006;2023-01-01T07:18:43;15.00;99.90
11242;DHT22;5678;52.370;9.006;2023-01-01T07:21:30;14.40;99.90
11242;DHT22;5678;52.370;9.006;2023-01-01T07:24:02;14.00;99.90
11242;DHT22;5678;52.370;9.006;2023-01-01T07:26:32;13.90;99.90
11242;DHT22;5678;52.370;9.006;2023-01-01T07:29:00;14.90;99.90
11242;DHT22;5678;52.370;9.006;2023-01-01T07:31:34;14.80;99.90
11242;DHT22;5678;52.370;9.006;2023-01-01T07:34:02;14.00;99.90
11242;DHT22;5678;52.370;9.006;2023-01-01T07:36:31;14.90;99.90
11242;DHT22;5678;52.370;9.006;2023-01-01T07:39:00;14.70;99.90
11242;DHT22;5678;52.370;9.006;2023-01-01T07:41:28;15.30;99.90
11242;DHT22;5678;52.370;9.006;2023-01-01T07:43:56;13.50;99.90
11242;DHT22;5678;52.370;9.006;2023-01-01T07:46:24;14.00;99.90
11242;DHT22;5678;52.370;9.006;2023-01-01T07:48:52;14.60;99.90
11242;DHT22;5678;52.370;9.006;2023-01-01T07:51:21;14.80;99.90
11242;DHT22;5678;52.370;9.006;2023-01-01T07:53:49;15.00;99.90
11242;DHT22;5678;52.370;9.006;2023-01-01T07:56:18;14.30;99.90
11242;DHT22;5678;52.370;9.006;2023-01-01T07:58:46;14.00;99.90
11242;DHT22;5678;52.370;9.006;2023-01-01T08:01:14;14.70;99.90
11242;DHT22;5678;52.370;9.006;2023-01-01T08:03:42;14.90;99.90
11242;DHT22;5678;52.370;9.006;2023-01-01T08:06:11;14.80;99.90
11242;DHT22;5678;52.370;9.006;2023-01-01T08:08:39;13.90;99.90
11242;DHT22;5678;52.370;9.006;2023-01-01T08:11:08;14.80;99.90
11242;DHT22;5678;52.370;9.006;2023-01-01T08:13:37;13.80;99.90
11242;DHT22;5678;52.370;9.006;2023-01-01T08:16:05;14.70;99.90
11242;DHT22;5678;52.370;9.006;2023-01-01T08:18:33;13.60;99.90
11242;DHT22;5678;52.370;9.006;2023-01-01T08:21:02;13.70;99.90
11242;DHT22;5678;52.370;9.006;2023-01-01T08:23:30;13.40;99.90
11242;DHT22;5678;52.370;9.006;2023-01-01T08:25:59;14.30;99.90
11242;DHT22;5678;52.370;9.006;2023-01-01T08:28:28;14.80;99.90
11242;DHT22;5678;52.370;9.006;2023-01-01T08:30:57;14.30;99.90
11242;DHT22;5678;52.370;9.006;2023-01-01T08:33:26;13.50;99.90
11242;DHT22;5678;52.370;9.006;2023-01-01T08:35:54;13.20;99.90
11242;DHT22;5678;52.370;9.006;2023-01-01T08:38:22;13.20;99.90
11242;DHT22;5678;52.370;9.006;2023-01-01T08:40:50;13.30;99.90
11242;DHT22;5678;52.370;9.006;2023-01-01T08:43:18;13.90;99.90
11242;DHT22;5678;52.370;9.006;2023-01-01T08:45:46;13.30;99.90
11242;DHT22;5678;52.370;9.006;2023-01-01T08:48:15;13.30;99.90
11242;DHT22;5678;52.370;9.006;2023-01-01T08:50:43;13.30;99.90
11242;DHT22;5678;52.370;9.006;2023-01-01T08:53:10;13.30;99.90
11242;DHT22;5678;52.370;9.006;2023-01-01T08:55:39;14.70;99.90
11242;DHT22;5678;52.370;9.006;2023-01-01T08:58:07;13.70;99.90
11242;DHT22;5678;52.370;9.006;2023-01-01T09:00:35;13.20;99.90
11242;DHT22;5678;52.370;9.006;2023-01-01T09:03:03;13.20;99.90
11242;DHT22;5678;52.370;9.006;2023-01-01T09:05:32;13.10;99.90
11242;DHT22;5678;52.370;9.006;2023-01-01T09:08:00;13.20;99.90
11242;DHT22;5678;52.370;9.006;2023-01-01T09:10:29;14.70;99.90
11242;DHT22;5678;52.370;9.006;2023-01-01T09:12:57;13.60;99.90
11242;DHT22;5678;52.370;9.006;2023-01-01T09:15:25;13.10;99.90
11242;DHT22;5678;52.370;9.006;2023-01-01T09:17:53;13.10;99.90
11242;DHT22;5678;52.370;9.006;2023-01-01T09:20:21;13.30;99.90
11242;DHT22;5678;52.370;9.006;2023-01-01T09:22:50;13.00;99.90
11242;DHT22;5678;52.370;9.006;2023-01-01T09:25:18;12.60;99.90
11242;DHT22;5678;52.370;9.006;2023-01-01T09:27:46;12.90;99.90
11242;DHT22;5678;52.370;9.006;2023-01-01T09:30:14;12.80;99.90
11242;DHT22;5678;52.370;9.006;2023-01-01T09:32:42;13.00;99.90
11242;DHT22;5678;52.370;9.006;2023-01-01T09:35:10;12.00;99.90
11242;DHT22;5678;52.370;9.006;2023-01-01T09:37:38;13.50;99.90
11242;DHT22;5678;52.370;9.006;2023-01-01T09:40:20;14.40;99.90
11242;DHT22;5678;52.370;9.006;2023-01-01T09:42:52;12.10;99.90
11242;DHT22;5678;52.370;9.006;2023-01-01T09:45:27;12.00;99.90
11242;DHT22;5678;52.370;9.006;2023-01-01T09:47:58;11.80;99.90
11242;DHT22;5678;52.370;9.006;2023-01-01T09:50:33;11.60;99.90
11242;DHT22;5678;52.370;9.006;2023-01-01T09:53:05;11.50;99.90
11242;DHT22;5678;52.370;9.006;2023-01-01T09:55:42;12.10;99.90
11242;DHT22;5678;52.370;9.006;2023-01-01T09:58:11;11.00;99.90
11242;DHT22;5678;52.370;9.006;2023-01-01T10:00:42;10.90;99.90
11242;DHT22;5678;52.370;9.006;2023-01-01T10:03:26;12.30;99.90
11242;DHT22;5678;52.370;9.006;2023-01-01T10:06:01;10.60;99.90
11242;DHT22;5678;52.370;9.006;2023-01-01T10:08:42;9.80;99.90
11242;DHT22;5678;52.370;9.006;2023-01-01T10:11:19;10.50;99.90
11242;DHT22;5678;52.370;9.006;2023-01-01T10:13:51;10.50;99.90
11242;DHT22;5678;52.370;9.006;2023-01-01T10:16:27;10.50;99.90
11242;DHT22;5678;52.370;9.006;2023-01-01T10:19:00;12.50;99.90
11242;DHT22;5678;52.370;9.006;2023-01-01T10:21:31;11.60;99.90
11242;DHT22;5678;52.370;9.006;2023-01-01T10:24:04;10.60;99.90
11242;DHT22;5678;52.370;9.006;2023-01-01T10:26:39;10.70;99.90
11242;DHT22;5678;52.370;9.006;2023-01-01T10:29:13;11.40;99.90
11242;DHT22;5678;52.370;9.006;2023-01-01T10:31:45;10.70;99.90
11242;DHT22;5678;52.370;9.006;2023-01-01T10:34:16;10.70;99.90
11242;DHT22;5678;52.370;9.006;2023-01-01T10:36:45;10.80;99.90
11242;DHT22;5678;52.370;9.006;2023-01-01T10:39:15;10.80;99.90
11242;DHT22;5678;52.370;9.006;2023-01-01T10:41:45;10.80;99.90
11242;DHT22;5678;52.370;9.006;2023-01-01T10:44:16;10.90;99.90
11242;DHT22;5678;52.370;9.006;2023-01-01T10:46:47;12.40;99.90
11242;DHT22;5678;52.370;9.006;2023-01-01T10:49:17;10.90;99.90
11242;DHT22;5678;52.370;9.006;2023-01-01T10:51:47;10.90;99.90
11242;DHT22;5678;52.370;9.006;2023-01-01T10:54:27;11.10;99.90
11242;DHT22;5678;52.370;9.006;2023-01-01T10:56:59;10.90;99.90
11242;DHT22;5678;52.370;9.006;2023-01-01T10:59:41;11.00;99.90
11242;DHT22;5678;52.370;9.006;2023-01-01T11:02:19;11.00;99.90
11242;DHT22;5678;52.370;9.006;2023-01-01T11:04:48;11.00;99.90
11242;DHT22;5678;52.370;9.006;2023-01-01T11:07:23;11.10;99.90
11242;DHT22;5678;52.370;9.006;2023-01-01T11:09:58;11.00;99.90
11242;DHT22;5678;52.370;9.006;2023-01-01T11:12:34;10.90;99.90
11242;DHT22;5678;52.370;9.006;2023-01-01T11:15:34;11.00;99.90
11242;DHT22;5678;52.370;9.006;2023-01-01T11:18:04;11.00;99.90
11242;DHT22;5678;52.370;9.006;2023-01-01T11:20:33;11.00;99.90
11242;DHT22;5678;52.370;9.006;2023-01-01T11:23:17;12.10;99.90
11242;DHT22;5678;52.370;9.006;2023-01-01T11:25:57;12.80;99.90
11242;DHT22;5678;52.370;9.006;2023-01-01T11:28:27;10.90;99.90
11242;DHT22;5678;52.370;9.006;2023-01-01T11:31:00;10.90;99.90
11242;DHT22;5678;52.370;9.006;2023-01-01T11:33:31;11.00;99.90
11242;DHT22;5678;52.370;9.006;2023-01-01T11:36:00;10.90;99.90
11242;DHT22;5678;52.370;9.006;2023-01-01T11:38:28;10.90;99.90
11242;DHT22;5678;52.370;9.006;2023-01-01T11:41:02;10.90;99.90
11242;DHT22;5678;52.370;9.006;2023-01-01T11:43:37;10.90;99.90
11242;DHT22;5678;52.370;9.006;2023-01-01T11:46:08;10.80;99.90
11242;DHT22;5678;52.370;9.006;2023-01-01T11:48:41;10.90;99.90
11242;DHT22;5678;52.370;9.006;2023-01-01T11:51:27;11.00;99.90
11242;DHT22;5678;52.370;9.006;2023-01-01T11:54:09;10.90;99.90
11242;DHT22;5678;52.370;9.006;2023-01-01T11:56:38;10.90;99.90
11242;DHT22;5678;52.370;9.006;2023-01-01T11:59:13;10.90;99.90
11242;DHT22;5678;52.370;9.006;2023-01-01T12:01:45;10.90;99.90
11242;DHT22;5678;52.370;9.006;2023-01-01T12:04:19;11.50;99.90
11242;DHT22;5678;52.370;9.006;2023-01-01T12:06:54;12.50;99.90
11242;DHT22;5678;52.370;9.006;2023-01-01T12:09:31;10.90;99.90
11242;DHT22;5678;52.370;9.006;2023-01-01T12:12:04;10.80;99.90
11242;DHT22;5678;52.370;9.006;2023-01-01T12:14:41;10.90;99.90
11242;DHT22;5678;52.370;9.006;2023-01-01T12:17:16;10.80;99.90
11242;DHT22;5678;52.370;9.006;2023-01-01T12:19:54;10.80;99.90
11242;DHT22;5678;52.370;9.006;2023-01-01T12:22:22;10.80;99.90
11242;DHT22;5678;52.370;9.006;2023-01-01T12:24:51;10.90;99.90
11242;DHT22;5678;52.370;9.006;2023-01-01T12:27:33;10.90;99.90
11242;DHT22;5678;52.370;9.006;2023-01-01T12:30:14;11.70;99.90
11242;DHT22;5678;52.370;9.006;2023-01-01T12:32:55;10.90;99.90
11242;DHT22;5678;52.370;9.006;2023-01-01T12:35:45;10.90;99.90
11242;DHT22;5678;52.370;9.006;2023-01-01T12:38:22;11.00;99.90
11242;DHT22;5678;52.370;9.006;2023-01-01T12:40:53;10.90;99.90
11242;DHT22;5678;52.370;9.006;2023-01-01T12:43:29;10.90;99.90
11242;DHT22;5678;52.370;9.006;2023-01-01T12:46:21;10.90;99.90
11242;DHT22;5678;52.370;9.006;2023-01-01T12:52:10;11.00;99.90
11242;DHT22;5678;52.370;9.006;2023-01-01T12:54:58;11.00;99.90
11242;DHT22;5678;52.370;9.006;2023-01-01T12:57:35;11.10;99.90
11242;DHT22;5678;52.370;9.006;2023-01-01T13:00:12;11.20;99.90
11242;DHT22;5678;52.370;9.006;2023-01-01T13:02:47;11.20;99.90
11242;DHT22;5678;52.370;9.006;2023-01-01T13:05:19;11.90;99.90
11242;DHT22;5678;52.370;9.006;2023-01-01T13:07:53;11.50;99.90
11242;DHT22;5678;52.370;9.006;2023-01-01T13:10:25;12.90;99.90
11242;DHT22;5678;52.370;9.006;2023-01-01T13:12:54;12.50;99.90
11242;DHT22;5678;52.370;9.006;2023-01-01T13:15:43;11.30;99.90
11242;DHT22;5678;52.370;9.006;2023-01-01T13:18:32;11.30;99.90
11242;DHT22;5678;52.370;9.006;2023-01-01T13:21:06;11.30;99.90
11242;DHT22;5678;52.370;9.006;2023-01-01T13:23:52;11.70;99.90
11242;DHT22;5678;52.370;9.006;2023-01-01T13:26:42;11.30;99.90
11242;DHT22;5678;52.370;9.006;2023-01-01T13:29:43;11.30;99.90
11242;DHT22;5678;52.370;9.006;2023-01-01T13:32:13;11.20;99.90
11242;DHT22;5678;52.370;9.006;2023-01-01T13:35:01;11.20;99.90
11242;DHT22;5678;52.370;9.006;2023-01-01T13:37:40;11.20;99.90
11242;DHT22;5678;52.370;9.006;2023-01-01T13:40:31;11.20;99.90
11242;DHT22;5678;52.370;9.006;2023-01-01T13:43:25;11.10;99.90
11242;DHT22;5678;52.370;9.006;2023-01-01T13:45:54;11.00;99.90
11242;DHT22;5678;52.370;9.006;2023-01-01T13:49:19;11.00;99.90
11242;DHT22;5678;52.370;9.006;2023-01-01T13:52:21;10.80;99.90
11242;DHT22;5678;52.370;9.006;2023-01-01T13:58:23;10.90;99.90
11242;DHT22;5678;52.370;9.006;2023-01-01T14:01:22;10.90;99.90
11242;DHT22;5678;52.370;9.006;2023-01-01T14:03:53;10.90;99.90
11242;DHT22;5678;52.370;9.006;2023-01-01T14:06:27;11.20;99.90
11242;DHT22;5678;52.370;9.006;2023-01-01T14:09:02;10.90;99.90
11242;DHT22;5678;52.370;9.006;2023-01-01T14:11:31;11.20;99.90
11242;DHT22;5678;52.370;9.006;2023-01-01T14:13:59;10.90;99.90
11242;DHT22;5678;52.370;9.006;2023-01-01T14:16:28;11.00;99.90
11242;DHT22;5678;52.370;9.006;2023-01-01T14:18:58;11.00;99.90
11242;DHT22;5678;52.370;9.006;2023-01-01T14:21:31;11.00;99.90
11242;DHT22;5678;52.370;9.006;2023-01-01T14:24:03;11.20;99.90
11242;DHT22;5678;52.370;9.006;2023-01-01T14:26:32;11.10;99.90
11242;DHT22;5678;52.370;9.006;2023-01-01T14:29:06;11.10;99.90
11242;DHT22;5678;52.370;9.006;2023-01-01T14:31:38;11.10;99.90
11242;DHT22;5678;52.370;9.006;2023-01-01T14:34:14;11.20;99.90
11242;DHT22;5678;52.370;9.006;2023-01-01T14:36:49;12.00;99.90
11242;DHT22;5678;52.370;9.006;2023-01-01T14:39:24;11.30;99.90
11242;DHT22;5678;52.370;9.006;2023-01-01T14:41:56;11.10;99.90
11242;DHT22;5678;52.370;9.006;2023-01-01T14:44:28;11.10;99.90
11242;DHT22;5678;52.370;9.006;2023-01-01T14:46:57;11.00;99.90
11242;DHT22;5678;52.370;9.006;2023-01-01T14:49:28;11.20;99.90
11242;DHT22;5678;52.370;9.006;2023-01-01T14:51:59;12.60;99.90
11242;DHT22;5678;52.370;9.006;2023-01-01T14:54:32;11.50;99.90
11242;DHT22;5678;52.370;9.006;2023-01-01T14:57:03;10.90;99.90
11242;DHT22;5678;52.370;9.006;2023-01-01T14:59:35;10.90;99.90
11242;DHT22;5678;52.370;9.006;2023-01-01T15:02:13;10.90;99.90
11242;DHT22;5678;52.370;9.006;2023-01-01T15:04:42;10.80;99.90
11242;DHT22;5678;52.370;9.006;2023-01-01T15:07:18;10.70;99.90
11242;DHT22;5678;52.370;9.006;2023-01-01T15:09:48;10.70;99.90
11242;DHT22;5678;52.370;9.006;2023-01-01T15:12:17;12.30;99.90
11242;DHT22;5678;52.370;9.006;2023-01-01T15:14:48;12.50;99.90
11242;DHT22;5678;52.370;9.006;2023-01-01T15:17:18;10.60;99.90
11242;DHT22;5678;52.370;9.006;2023-01-01T15:19:59;10.60;99.90
11242;DHT22;5678;52.370;9.006;2023-01-01T15:22:30;10.60;99.90
11242;DHT22;5678;52.370;9.006;2023-01-01T15:25:01;11.80;99.90
11242;DHT22;5678;52.370;9.006;2023-01-01T15:27:31;10.60;99.90
11242;DHT22;5678;52.370;9.006;2023-01-01T15:30:00;12.40;99.90
11242;DHT22;5678;52.370;9.006;2023-01-01T15:32:37;10.50;99.90
11242;DHT22;5678;52.370;9.006;2023-01-01T15:35:16;10.80;99.90
11242;DHT22;5678;52.370;9.006;2023-01-01T15:37:47;10.40;99.90
11242;DHT22;5678;52.370;9.006;2023-01-01T15:40:34;10.40;99.90
11242;DHT22;5678;52.370;9.006;2023-01-01T15:43:24;10.40;99.90
11242;DHT22;5678;52.370;9.006;2023-01-01T15:45:57;10.40;99.90
11242;DHT22;5678;52.370;9.006;2023-01-01T15:48:33;10.40;99.90
11242;DHT22;5678;52.370;9.006;2023-01-01T15:51:21;10.40;99.90
11242;DHT22;5678;52.370;9.006;2023-01-01T15:53:53;10.40;99.90
11242;DHT22;5678;52.370;9.006;2023-01-01T15:56:25;10.30;99.90
11242;DHT22;5678;52.370;9.006;2023-01-01T15:58:55;11.10;99.90
11242;DHT22;5678;52.370;9.006;2023-01-01T16:01:36;10.30;99.90
11242;DHT22;5678;52.370;9.006;2023-01-01T16:04:07;10.20;99.90
11242;DHT22;5678;52.370;9.006;2023-01-01T16:06:41;10.10;99.90
11242;DHT22;5678;52.370;9.006;2023-01-01T16:09:11;9.60;99.90
11242;DHT22;5678;52.370;9.006;2023-01-01T16:11:41;10.10;99.90
11242;DHT22;5678;52.370;9.006;2023-01-01T16:14:09;10.00;99.90
11242;DHT22;5678;52.370;9.006;2023-01-01T16:16:38;10.00;99.90
11242;DHT22;5678;52.370;9.006;2023-01-01T16:19:10;10.90;99.90
11242;DHT22;5678;52.370;9.006;2023-01-01T16:21:41;9.90;99.90
11242;DHT22;5678;52.370;9.006;2023-01-01T16:24:11;9.90;99.90
11242;DHT22;5678;52.370;9.006;2023-01-01T16:26:41;10.10;99.90